This demonstration page uses our WeatherBlox Daily Observations layout. Learn more.

36.17497, -115.13722

Hourly Observations for July 27, 2018

Temp ( °F °C ) Dew Point ( °F °C ) Humidity (%) Winds ( mph kmh ) Pressure ( in mb ) Visibility ( mi km ) Precip ( " mm )
12:53 am 00:53 Clear 95 35 47 8.3 19 19 ESE 3 6 29.8 1009 10 16.09344 0 0
1:53 am 01:53 Clear 96 35.6 48 8.9 19 19 ENE 5 7 29.8 1009 10 16.09344 0 0
2:53 am 02:53 Clear 92 33.3 49 9.4 23 23 NNW 6 9 29.8 1009 10 16.09344 0 0
3:53 am 03:53 Clear 90 32.2 50 10 25 25 N 7 11 29.8 1009 10 16.09344 0 0
4:53 am 04:53 Clear 88 31.1 49 9.4 26 26 NNW 5 7 29.8 1009 10 16.09344 0 0
5:53 am 05:53 Sunny 88 31.1 49 9.4 26 26 NNW 3 6 29.8 1009 10 16.09344 0 0
6:53 am 06:53 Sunny 90 32.2 49 9.4 24 24 SE 3 6 29.83 1010 10 16.09344 0 0
7:53 am 07:53 Sunny 94 34.4 48 8.9 21 21 N 6 9 29.83 1010 10 16.09344 0 0
8:53 am 08:53 Sunny 96 35.6 48 8.9 19 19 N 3 6 29.85 1011 10 16.09344 0 0
9:53 am 09:53 Sunny 99 37.2 47 8.3 17 17 N 3 6 29.85 1011 10 16.09344 0 0
10:53 am 10:53 Sunny 101 38.3 47 8.3 16 16 SSE 8 13 29.85 1011 10 16.09344 0 0
11:53 am 11:53 Sunny 104 40 48 8.9 15 15 S 6 9 29.83 1010 10 16.09344 0 0
12:53 pm 12:53 Sunny 107 41.7 50 10 15 15 undefined N/A 29.83 1010 10 16.09344 0 0
1:53 pm 13:53 Sunny 107 41.7 48 8.9 14 14 Calm 29.8 1009 10 16.09344 0 0
2:53 pm 14:53 Sunny 109 42.8 47 8.3 12 12 SSE 8 13 29.77 1008 10 16.09344 0 0
3:53 pm 15:53 Sunny 112 44.4 45 7.2 11 11 S 10 17 29.74 1007 10 16.09344 0 0
4:53 pm 16:53 Sunny 110 43.3 47 8.3 12 12 SE 9 15 29.71 1006 10 16.09344 0 0
5:53 pm 17:53 Sunny 109 42.8 44 6.7 11 11 S 14 22 29.68 1005 10 16.09344 0 0
6:53 pm 18:53 Sunny 109 42.8 43 6.1 11 11 SE 12 19 29.68 1005 10 16.09344 0 0
7:53 pm 19:53 Clear 108 42.2 39 3.9 9 9 WSW 8 13 29.71 1006 10 16.09344 0 0
8:53 pm 20:53 Clear 105 40.6 40 4.4 11 11 SW 5 7 29.71 1006 10 16.09344 0 0
9:53 pm 21:53 Clear 102 38.9 42 5.6 13 13 Calm 29.74 1007 10 16.09344 0 0
10:53 pm 22:53 Clear 102 38.9 41 5 12 12 SW 7 11 29.74 1007 10 16.09344 0 0
11:53 pm 23:53 Clear 96 35.6 45 7.2 17 17 NNW 6 9 29.74 1007 10 16.09344 0 0

Powered by AerisWeather